sensor_id;sensor_type;location;lat;lon;timestamp;P1;durP1;ratioP1;P2;durP2;ratioP2
7729;SDS011;3908;52.310;7.230;2023-05-28T00:00:09;8.23;;;5.40;;
7729;SDS011;3908;52.310;7.230;2023-05-28T00:02:56;9.60;;;5.40;;
7729;SDS011;3908;52.310;7.230;2023-05-28T00:05:44;9.90;;;5.13;;
7729;SDS011;3908;52.310;7.230;2023-05-28T00:08:31;9.90;;;5.83;;
7729;SDS011;3908;52.310;7.230;2023-05-28T00:11:18;10.97;;;5.47;;
7729;SDS011;3908;52.310;7.230;2023-05-28T00:14:08;10.03;;;5.23;;
7729;SDS011;3908;52.310;7.230;2023-05-28T00:16:55;9.50;;;5.30;;
7729;SDS011;3908;52.310;7.230;2023-05-28T00:19:42;8.03;;;5.33;;
7729;SDS011;3908;52.310;7.230;2023-05-28T00:22:28;9.00;;;4.87;;
7729;SDS011;3908;52.310;7.230;2023-05-28T00:25:15;11.03;;;5.30;;
7729;SDS011;3908;52.310;7.230;2023-05-28T00:28:02;11.93;;;5.43;;
7729;SDS011;3908;52.310;7.230;2023-05-28T00:30:50;10.03;;;5.50;;
7729;SDS011;3908;52.310;7.230;2023-05-28T00:33:37;12.33;;;5.60;;
7729;SDS011;3908;52.310;7.230;2023-05-28T00:36:24;13.37;;;5.67;;
7729;SDS011;3908;52.310;7.230;2023-05-28T00:39:11;17.13;;;5.83;;
7729;SDS011;3908;52.310;7.230;2023-05-28T00:42:01;16.27;;;6.80;;
7729;SDS011;3908;52.310;7.230;2023-05-28T00:44:48;13.13;;;6.20;;
7729;SDS011;3908;52.310;7.230;2023-05-28T00:47:36;15.63;;;6.83;;
7729;SDS011;3908;52.310;7.230;2023-05-28T00:50:23;12.07;;;5.37;;
7729;SDS011;3908;52.310;7.230;2023-05-28T00:53:10;13.47;;;5.47;;
7729;SDS011;3908;52.310;7.230;2023-05-28T00:55:57;11.73;;;5.43;;
7729;SDS011;3908;52.310;7.230;2023-05-28T00:58:44;12.67;;;6.13;;
7729;SDS011;3908;52.310;7.230;2023-05-28T01:01:33;9.70;;;5.80;;
7729;SDS011;3908;52.310;7.230;2023-05-28T01:04:22;10.70;;;6.03;;
7729;SDS011;3908;52.310;7.230;2023-05-28T01:07:09;13.23;;;6.00;;
7729;SDS011;3908;52.310;7.230;2023-05-28T01:09:56;16.10;;;6.47;;
7729;SDS011;3908;52.310;7.230;2023-05-28T01:12:43;33.17;;;7.10;;
7729;SDS011;3908;52.310;7.230;2023-05-28T01:15:30;13.10;;;6.70;;
7729;SDS011;3908;52.310;7.230;2023-05-28T01:18:17;13.00;;;6.40;;
7729;SDS011;3908;52.310;7.230;2023-05-28T01:21:06;15.77;;;6.03;;
7729;SDS011;3908;52.310;7.230;2023-05-28T01:23:55;14.17;;;6.33;;
7729;SDS011;3908;52.310;7.230;2023-05-28T01:26:43;12.83;;;6.53;;
7729;SDS011;3908;52.310;7.230;2023-05-28T01:29:30;16.97;;;6.40;;
7729;SDS011;3908;52.310;7.230;2023-05-28T01:32:18;12.27;;;6.03;;
7729;SDS011;3908;52.310;7.230;2023-05-28T01:35:05;13.87;;;7.03;;
7729;SDS011;3908;52.310;7.230;2023-05-28T01:37:53;16.33;;;6.97;;
7729;SDS011;3908;52.310;7.230;2023-05-28T01:40:44;19.67;;;7.40;;
7729;SDS011;3908;52.310;7.230;2023-05-28T01:43:31;14.13;;;6.97;;
7729;SDS011;3908;52.310;7.230;2023-05-28T01:46:18;17.23;;;6.93;;
7729;SDS011;3908;52.310;7.230;2023-05-28T01:49:06;14.70;;;7.23;;
7729;SDS011;3908;52.310;7.230;2023-05-28T01:51:53;16.87;;;6.70;;
7729;SDS011;3908;52.310;7.230;2023-05-28T01:54:41;12.63;;;6.50;;
7729;SDS011;3908;52.310;7.230;2023-05-28T01:57:30;14.40;;;6.60;;
7729;SDS011;3908;52.310;7.230;2023-05-28T02:00:17;14.33;;;7.30;;
7729;SDS011;3908;52.310;7.230;2023-05-28T02:03:03;18.20;;;7.67;;
7729;SDS011;3908;52.310;7.230;2023-05-28T02:05:51;12.10;;;7.00;;
7729;SDS011;3908;52.310;7.230;2023-05-28T02:08:38;20.13;;;8.30;;
7729;SDS011;3908;52.310;7.230;2023-05-28T02:11:25;19.23;;;8.10;;
7729;SDS011;3908;52.310;7.230;2023-05-28T02:14:16;15.53;;;7.53;;
7729;SDS011;3908;52.310;7.230;2023-05-28T02:17:03;17.50;;;7.07;;
7729;SDS011;3908;52.310;7.230;2023-05-28T02:19:50;18.40;;;7.50;;
7729;SDS011;3908;52.310;7.230;2023-05-28T02:22:37;14.83;;;7.03;;
7729;SDS011;3908;52.310;7.230;2023-05-28T02:25:23;22.27;;;7.60;;
7729;SDS011;3908;52.310;7.230;2023-05-28T02:28:10;18.20;;;6.80;;
7729;SDS011;3908;52.310;7.230;2023-05-28T02:30:58;14.47;;;6.80;;
7729;SDS011;3908;52.310;7.230;2023-05-28T02:33:45;13.63;;;6.53;;
7729;SDS011;3908;52.310;7.230;2023-05-28T02:36:32;11.47;;;6.60;;
7729;SDS011;3908;52.310;7.230;2023-05-28T02:39:18;15.83;;;9.30;;
7729;SDS011;3908;52.310;7.230;2023-05-28T02:42:05;10.63;;;6.50;;
7729;SDS011;3908;52.310;7.230;2023-05-28T02:44:53;11.70;;;7.30;;
7729;SDS011;3908;52.310;7.230;2023-05-28T02:47:41;17.57;;;8.60;;
7729;SDS011;3908;52.310;7.230;2023-05-28T02:50:28;16.97;;;7.50;;
7729;SDS011;3908;52.310;7.230;2023-05-28T02:53:15;17.23;;;7.47;;
7729;SDS011;3908;52.310;7.230;2023-05-28T02:56:01;20.13;;;8.03;;
7729;SDS011;3908;52.310;7.230;2023-05-28T02:58:48;14.90;;;6.13;;
7729;SDS011;3908;52.310;7.230;2023-05-28T03:01:35;13.43;;;6.97;;
7729;SDS011;3908;52.310;7.230;2023-05-28T03:04:23;19.87;;;8.90;;
7729;SDS011;3908;52.310;7.230;2023-05-28T03:07:10;17.30;;;8.13;;
7729;SDS011;3908;52.310;7.230;2023-05-28T03:09:57;15.57;;;7.43;;
7729;SDS011;3908;52.310;7.230;2023-05-28T03:12:44;17.37;;;7.83;;
7729;SDS011;3908;52.310;7.230;2023-05-28T03:15:30;17.00;;;7.63;;
7729;SDS011;3908;52.310;7.230;2023-05-28T03:18:17;27.60;;;9.40;;
7729;SDS011;3908;52.310;7.230;2023-05-28T03:21:05;17.67;;;8.73;;
7729;SDS011;3908;52.310;7.230;2023-05-28T03:23:52;14.40;;;7.60;;
7729;SDS011;3908;52.310;7.230;2023-05-28T03:26:39;16.97;;;8.10;;
7729;SDS011;3908;52.310;7.230;2023-05-28T03:29:25;19.47;;;8.67;;
7729;SDS011;3908;52.310;7.230;2023-05-28T03:32:12;21.23;;;8.93;;
7729;SDS011;3908;52.310;7.230;2023-05-28T03:34:59;16.83;;;8.70;;
7729;SDS011;3908;52.310;7.230;2023-05-28T03:37:47;14.70;;;8.20;;
7729;SDS011;3908;52.310;7.230;2023-05-28T03:40:34;20.07;;;9.00;;
7729;SDS011;3908;52.310;7.230;2023-05-28T03:43:20;18.07;;;10.07;;
7729;SDS011;3908;52.310;7.230;2023-05-28T03:46:07;23.67;;;11.00;;
7729;SDS011;3908;52.310;7.230;2023-05-28T03:48:54;20.73;;;10.87;;
7729;SDS011;3908;52.310;7.230;2023-05-28T03:51:41;21.13;;;11.10;;
7729;SDS011;3908;52.310;7.230;2023-05-28T03:54:29;21.53;;;11.60;;
7729;SDS011;3908;52.310;7.230;2023-05-28T03:57:16;24.97;;;11.93;;
7729;SDS011;3908;52.310;7.230;2023-05-28T04:00:09;27.37;;;11.90;;
7729;SDS011;3908;52.310;7.230;2023-05-28T04:02:56;25.27;;;11.70;;
7729;SDS011;3908;52.310;7.230;2023-05-28T04:05:43;22.03;;;11.23;;
7729;SDS011;3908;52.310;7.230;2023-05-28T04:08:30;23.63;;;11.07;;
7729;SDS011;3908;52.310;7.230;2023-05-28T04:11:18;26.00;;;10.13;;
7729;SDS011;3908;52.310;7.230;2023-05-28T04:14:06;21.97;;;11.27;;
7729;SDS011;3908;52.310;7.230;2023-05-28T04:16:54;27.80;;;11.87;;
7729;SDS011;3908;52.310;7.230;2023-05-28T04:19:43;23.80;;;11.80;;
7729;SDS011;3908;52.310;7.230;2023-05-28T04:22:29;23.67;;;10.20;;
7729;SDS011;3908;52.310;7.230;2023-05-28T04:25:16;22.97;;;10.50;;
7729;SDS011;3908;52.310;7.230;2023-05-28T04:28:05;22.10;;;10.77;;
7729;SDS011;3908;52.310;7.230;2023-05-28T04:30:52;20.03;;;10.53;;
7729;SDS011;3908;52.310;7.230;2023-05-28T04:33:39;20.30;;;11.20;;
7729;SDS011;3908;52.310;7.230;2023-05-28T04:36:26;21.30;;;11.27;;
7729;SDS011;3908;52.310;7.230;2023-05-28T04:39:18;27.10;;;11.87;;
7729;SDS011;3908;52.310;7.230;2023-05-28T04:42:06;21.40;;;11.37;;
7729;SDS011;3908;52.310;7.230;2023-05-28T04:44:56;26.70;;;10.67;;
7729;SDS011;3908;52.310;7.230;2023-05-28T04:47:43;21.03;;;11.63;;
7729;SDS011;3908;52.310;7.230;2023-05-28T04:50:30;21.53;;;10.57;;
7729;SDS011;3908;52.310;7.230;2023-05-28T04:53:17;23.60;;;11.60;;
7729;SDS011;3908;52.310;7.230;2023-05-28T04:56:04;20.33;;;10.13;;
7729;SDS011;3908;52.310;7.230;2023-05-28T04:58:51;20.93;;;10.97;;
7729;SDS011;3908;52.310;7.230;2023-05-28T05:01:39;21.87;;;10.20;;
7729;SDS011;3908;52.310;7.230;2023-05-28T05:04:27;20.20;;;9.27;;
7729;SDS011;3908;52.310;7.230;2023-05-28T05:07:14;16.87;;;9.43;;
7729;SDS011;3908;52.310;7.230;2023-05-28T05:10:01;21.33;;;11.33;;
7729;SDS011;3908;52.310;7.230;2023-05-28T05:12:47;16.23;;;9.70;;
7729;SDS011;3908;52.310;7.230;2023-05-28T05:15:34;20.73;;;9.07;;
7729;SDS011;3908;52.310;7.230;2023-05-28T05:18:23;16.90;;;9.73;;
7729;SDS011;3908;52.310;7.230;2023-05-28T05:21:10;16.67;;;9.43;;
7729;SDS011;3908;52.310;7.230;2023-05-28T05:23:58;17.43;;;9.23;;
7729;SDS011;3908;52.310;7.230;2023-05-28T05:26:45;21.43;;;9.90;;
7729;SDS011;3908;52.310;7.230;2023-05-28T05:29:31;19.53;;;8.97;;
7729;SDS011;3908;52.310;7.230;2023-05-28T05:32:18;19.97;;;10.63;;
7729;SDS011;3908;52.310;7.230;2023-05-28T05:35:07;16.37;;;9.50;;
7729;SDS011;3908;52.310;7.230;2023-05-28T05:37:54;21.37;;;9.63;;
7729;SDS011;3908;52.310;7.230;2023-05-28T05:40:40;23.97;;;10.83;;
7729;SDS011;3908;52.310;7.230;2023-05-28T05:43:27;28.03;;;11.00;;
7729;SDS011;3908;52.310;7.230;2023-05-28T05:46:14;24.37;;;10.30;;
7729;SDS011;3908;52.310;7.230;2023-05-28T05:49:01;21.10;;;9.77;;
7729;SDS011;3908;52.310;7.230;2023-05-28T05:51:49;19.97;;;9.70;;
7729;SDS011;3908;52.310;7.230;2023-05-28T05:54:36;19.83;;;9.40;;
7729;SDS011;3908;52.310;7.230;2023-05-28T05:57:23;16.83;;;9.50;;
7729;SDS011;3908;52.310;7.230;2023-05-28T06:00:12;14.33;;;8.87;;
7729;SDS011;3908;52.310;7.230;2023-05-28T06:02:59;19.87;;;10.30;;
7729;SDS011;3908;52.310;7.230;2023-05-28T06:05:45;21.47;;;9.27;;
7729;SDS011;3908;52.310;7.230;2023-05-28T06:08:34;21.97;;;9.83;;
7729;SDS011;3908;52.310;7.230;2023-05-28T06:11:21;21.50;;;9.87;;
7729;SDS011;3908;52.310;7.230;2023-05-28T06:14:08;21.97;;;9.93;;
7729;SDS011;3908;52.310;7.230;2023-05-28T06:16:55;19.00;;;8.73;;
7729;SDS011;3908;52.310;7.230;2023-05-28T06:19:43;21.03;;;9.13;;
7729;SDS011;3908;52.310;7.230;2023-05-28T06:22:30;20.23;;;9.50;;
7729;SDS011;3908;52.310;7.230;2023-05-28T06:25:18;17.87;;;9.10;;
7729;SDS011;3908;52.310;7.230;2023-05-28T06:28:06;18.23;;;8.47;;
7729;SDS011;3908;52.310;7.230;2023-05-28T06:30:53;20.47;;;8.73;;
7729;SDS011;3908;52.310;7.230;2023-05-28T06:33:40;20.30;;;9.40;;
7729;SDS011;3908;52.310;7.230;2023-05-28T06:36:26;17.57;;;9.13;;
7729;SDS011;3908;52.310;7.230;2023-05-28T06:39:13;18.73;;;8.57;;
7729;SDS011;3908;52.310;7.230;2023-05-28T06:42:02;18.50;;;9.27;;
7729;SDS011;3908;52.310;7.230;2023-05-28T06:44:49;17.80;;;8.63;;
7729;SDS011;3908;52.310;7.230;2023-05-28T06:47:35;18.53;;;8.47;;
7729;SDS011;3908;52.310;7.230;2023-05-28T06:50:22;17.53;;;8.80;;
7729;SDS011;3908;52.310;7.230;2023-05-28T06:53:09;19.10;;;8.07;;
7729;SDS011;3908;52.310;7.230;2023-05-28T06:55:56;19.00;;;8.50;;
7729;SDS011;3908;52.310;7.230;2023-05-28T06:58:44;19.27;;;8.07;;
7729;SDS011;3908;52.310;7.230;2023-05-28T07:01:32;14.87;;;8.03;;
7729;SDS011;3908;52.310;7.230;2023-05-28T07:04:19;16.67;;;7.70;;
7729;SDS011;3908;52.310;7.230;2023-05-28T07:07:06;17.83;;;7.83;;
7729;SDS011;3908;52.310;7.230;2023-05-28T07:09:52;19.50;;;8.43;;
7729;SDS011;3908;52.310;7.230;2023-05-28T07:12:39;17.17;;;7.93;;
7729;SDS011;3908;52.310;7.230;2023-05-28T07:15:27;19.47;;;8.83;;
7729;SDS011;3908;52.310;7.230;2023-05-28T07:18:14;20.77;;;9.70;;
7729;SDS011;3908;52.310;7.230;2023-05-28T07:21:01;22.67;;;9.00;;
7729;SDS011;3908;52.310;7.230;2023-05-28T07:23:48;20.50;;;8.97;;
7729;SDS011;3908;52.310;7.230;2023-05-28T07:26:35;22.13;;;9.93;;
7729;SDS011;3908;52.310;7.230;2023-05-28T07:29:22;20.33;;;9.33;;
7729;SDS011;3908;52.310;7.230;2023-05-28T07:32:10;20.80;;;8.57;;
7729;SDS011;3908;52.310;7.230;2023-05-28T07:34:56;21.93;;;9.43;;
7729;SDS011;3908;52.310;7.230;2023-05-28T07:37:43;20.93;;;8.63;;
7729;SDS011;3908;52.310;7.230;2023-05-28T07:40:30;17.47;;;8.57;;
7729;SDS011;3908;52.310;7.230;2023-05-28T07:43:17;20.07;;;8.60;;
7729;SDS011;3908;52.310;7.230;2023-05-28T07:46:03;19.57;;;8.43;;
7729;SDS011;3908;52.310;7.230;2023-05-28T07:48:51;19.07;;;8.90;;
7729;SDS011;3908;52.310;7.230;2023-05-28T07:51:38;19.07;;;9.17;;
7729;SDS011;3908;52.310;7.230;2023-05-28T07:54:25;22.37;;;8.50;;
7729;SDS011;3908;52.310;7.230;2023-05-28T07:57:12;18.60;;;9.03;;
7729;SDS011;3908;52.310;7.230;2023-05-28T08:00:00;21.97;;;8.73;;
7729;SDS011;3908;52.310;7.230;2023-05-28T08:02:50;26.07;;;8.03;;
7729;SDS011;3908;52.310;7.230;2023-05-28T08:05:38;15.37;;;7.33;;
7729;SDS011;3908;52.310;7.230;2023-05-28T08:08:25;17.90;;;8.60;;
7729;SDS011;3908;52.310;7.230;2023-05-28T08:11:12;14.73;;;7.30;;
7729;SDS011;3908;52.310;7.230;2023-05-28T08:13:59;18.93;;;8.93;;
7729;SDS011;3908;52.310;7.230;2023-05-28T08:16:46;16.73;;;7.67;;
7729;SDS011;3908;52.310;7.230;2023-05-28T08:19:33;20.30;;;7.97;;
7729;SDS011;3908;52.310;7.230;2023-05-28T08:22:21;17.70;;;6.50;;
7729;SDS011;3908;52.310;7.230;2023-05-28T08:25:08;14.27;;;7.10;;
7729;SDS011;3908;52.310;7.230;2023-05-28T08:27:55;12.67;;;6.57;;
7729;SDS011;3908;52.310;7.230;2023-05-28T08:30:42;17.50;;;7.00;;
7729;SDS011;3908;52.310;7.230;2023-05-28T08:33:29;15.93;;;7.03;;
7729;SDS011;3908;52.310;7.230;2023-05-28T08:36:16;16.53;;;6.63;;
7729;SDS011;3908;52.310;7.230;2023-05-28T08:39:04;13.77;;;7.00;;
7729;SDS011;3908;52.310;7.230;2023-05-28T08:41:53;19.07;;;7.80;;
7729;SDS011;3908;52.310;7.230;2023-05-28T08:44:41;17.97;;;7.73;;
7729;SDS011;3908;52.310;7.230;2023-05-28T08:47:28;23.30;;;8.03;;
7729;SDS011;3908;52.310;7.230;2023-05-28T08:50:17;16.33;;;7.37;;
7729;SDS011;3908;52.310;7.230;2023-05-28T08:53:06;13.93;;;6.53;;
7729;SDS011;3908;52.310;7.230;2023-05-28T08:55:55;15.87;;;6.47;;
7729;SDS011;3908;52.310;7.230;2023-05-28T08:58:41;16.13;;;6.57;;
7729;SDS011;3908;52.310;7.230;2023-05-28T09:01:28;14.82;;;6.57;;
7729;SDS011;3908;52.310;7.230;2023-05-28T09:14:38;17.50;;;7.75;;
7729;SDS011;3908;52.310;7.230;2023-05-28T09:17:32;16.23;;;6.82;;
7729;SDS011;3908;52.310;7.230;2023-05-28T09:20:19;17.80;;;6.88;;
7729;SDS011;3908;52.310;7.230;2023-05-28T09:23:07;17.55;;;6.30;;
7729;SDS011;3908;52.310;7.230;2023-05-28T09:25:54;16.90;;;5.93;;
7729;SDS011;3908;52.310;7.230;2023-05-28T09:28:42;11.30;;;5.75;;
7729;SDS011;3908;52.310;7.230;2023-05-28T09:31:30;14.73;;;6.00;;
7729;SDS011;3908;52.310;7.230;2023-05-28T09:34:18;15.30;;;5.60;;
7729;SDS011;3908;52.310;7.230;2023-05-28T09:37:05;8.55;;;4.57;;
7729;SDS011;3908;52.310;7.230;2023-05-28T09:39:59;14.70;;;6.18;;
7729;SDS011;3908;52.310;7.230;2023-05-28T09:42:46;15.30;;;5.38;;
7729;SDS011;3908;52.310;7.230;2023-05-28T09:45:33;10.88;;;4.78;;
7729;SDS011;3908;52.310;7.230;2023-05-28T09:48:21;15.48;;;5.55;;
7729;SDS011;3908;52.310;7.230;2023-05-28T09:51:08;11.52;;;4.90;;
7729;SDS011;3908;52.310;7.230;2023-05-28T09:53:57;10.23;;;4.80;;
7729;SDS011;3908;52.310;7.230;2023-05-28T09:56:45;10.82;;;4.97;;
7729;SDS011;3908;52.310;7.230;2023-05-28T09:59:33;11.25;;;4.93;;
7729;SDS011;3908;52.310;7.230;2023-05-28T10:02:25;13.75;;;4.95;;
7729;SDS011;3908;52.310;7.230;2023-05-28T10:05:16;12.40;;;5.03;;
7729;SDS011;3908;52.310;7.230;2023-05-28T10:08:05;13.93;;;5.07;;
7729;SDS011;3908;52.310;7.230;2023-05-28T10:10:54;15.30;;;4.78;;
7729;SDS011;3908;52.310;7.230;2023-05-28T10:13:41;10.57;;;4.50;;
7729;SDS011;3908;52.310;7.230;2023-05-28T10:16:28;13.52;;;4.57;;
7729;SDS011;3908;52.310;7.230;2023-05-28T10:19:15;13.80;;;4.30;;
7729;SDS011;3908;52.310;7.230;2023-05-28T10:22:04;11.70;;;4.30;;
7729;SDS011;3908;52.310;7.230;2023-05-28T10:24:51;11.45;;;4.07;;
7729;SDS011;3908;52.310;7.230;2023-05-28T10:27:43;12.23;;;4.82;;
7729;SDS011;3908;52.310;7.230;2023-05-28T10:30:30;11.98;;;4.40;;
7729;SDS011;3908;52.310;7.230;2023-05-28T10:33:17;14.38;;;4.72;;
7729;SDS011;3908;52.310;7.230;2023-05-28T10:36:06;10.00;;;4.38;;
7729;SDS011;3908;52.310;7.230;2023-05-28T10:38:59;11.88;;;4.00;;
7729;SDS011;3908;52.310;7.230;2023-05-28T10:41:46;9.02;;;3.53;;
7729;SDS011;3908;52.310;7.230;2023-05-28T10:47:34;10.57;;;3.70;;
7729;SDS011;3908;52.310;7.230;2023-05-28T10:50:21;7.68;;;3.90;;
7729;SDS011;3908;52.310;7.230;2023-05-28T10:53:09;9.38;;;4.15;;
7729;SDS011;3908;52.310;7.230;2023-05-28T10:55:58;12.25;;;4.07;;
7729;SDS011;3908;52.310;7.230;2023-05-28T10:58:45;7.07;;;3.63;;
7729;SDS011;3908;52.310;7.230;2023-05-28T11:01:32;7.38;;;3.47;;
7729;SDS011;3908;52.310;7.230;2023-05-28T11:04:18;13.07;;;4.00;;
7729;SDS011;3908;52.310;7.230;2023-05-28T11:07:05;8.85;;;3.80;;
7729;SDS011;3908;52.310;7.230;2023-05-28T11:09:52;12.20;;;4.32;;
7729;SDS011;3908;52.310;7.230;2023-05-28T11:12:42;12.35;;;3.88;;
7729;SDS011;3908;52.310;7.230;2023-05-28T11:15:32;9.43;;;3.30;;
7729;SDS011;3908;52.310;7.230;2023-05-28T11:18:18;8.52;;;3.65;;
7729;SDS011;3908;52.310;7.230;2023-05-28T11:21:05;9.65;;;3.80;;
7729;SDS011;3908;52.310;7.230;2023-05-28T11:23:58;11.02;;;3.85;;
7729;SDS011;3908;52.310;7.230;2023-05-28T11:26:45;9.60;;;4.40;;
7729;SDS011;3908;52.310;7.230;2023-05-28T11:29:33;10.30;;;4.07;;
7729;SDS011;3908;52.310;7.230;2023-05-28T11:32:20;12.93;;;4.45;;
7729;SDS011;3908;52.310;7.230;2023-05-28T11:35:08;9.13;;;4.40;;
7729;SDS011;3908;52.310;7.230;2023-05-28T11:37:58;12.98;;;3.72;;
7729;SDS011;3908;52.310;7.230;2023-05-28T11:40:46;11.60;;;3.60;;
7729;SDS011;3908;52.310;7.230;2023-05-28T11:46:09;9.23;;;4.00;;
7729;SDS011;3908;52.310;7.230;2023-05-28T12:01:51;7.25;;;4.10;;
7729;SDS011;3908;52.310;7.230;2023-05-28T12:04:37;9.52;;;3.67;;
7729;SDS011;3908;52.310;7.230;2023-05-28T12:07:27;11.88;;;4.53;;
7729;SDS011;3908;52.310;7.230;2023-05-28T12:10:15;12.63;;;3.88;;
7729;SDS011;3908;52.310;7.230;2023-05-28T12:13:03;11.90;;;4.05;;
7729;SDS011;3908;52.310;7.230;2023-05-28T12:15:56;7.55;;;4.10;;
7729;SDS011;3908;52.310;7.230;2023-05-28T12:18:52;10.85;;;3.88;;
7729;SDS011;3908;52.310;7.230;2023-05-28T12:21:46;7.15;;;3.53;;
7729;SDS011;3908;52.310;7.230;2023-05-28T12:24:33;8.93;;;3.80;;
7729;SDS011;3908;52.310;7.230;2023-05-28T12:27:20;11.57;;;3.45;;
7729;SDS011;3908;52.310;7.230;2023-05-28T12:30:07;9.43;;;3.70;;
7729;SDS011;3908;52.310;7.230;2023-05-28T12:32:54;13.77;;;4.38;;
7729;SDS011;3908;52.310;7.230;2023-05-28T12:35:42;11.02;;;4.25;;
7729;SDS011;3908;52.310;7.230;2023-05-28T12:38:29;9.98;;;3.78;;
7729;SDS011;3908;52.310;7.230;2023-05-28T12:41:15;11.48;;;3.67;;
7729;SDS011;3908;52.310;7.230;2023-05-28T12:44:02;8.48;;;3.95;;
7729;SDS011;3908;52.310;7.230;2023-05-28T12:46:49;10.02;;;3.95;;
7729;SDS011;3908;52.310;7.230;2023-05-28T12:49:38;7.88;;;3.70;;
7729;SDS011;3908;52.310;7.230;2023-05-28T12:52:26;11.35;;;3.75;;
7729;SDS011;3908;52.310;7.230;2023-05-28T12:55:13;8.82;;;3.83;;
7729;SDS011;3908;52.310;7.230;2023-05-28T12:57:59;8.48;;;4.00;;
7729;SDS011;3908;52.310;7.230;2023-05-28T13:19:04;9.43;;;3.67;;
7729;SDS011;3908;52.310;7.230;2023-05-28T13:21:52;11.05;;;3.70;;
7729;SDS011;3908;52.310;7.230;2023-05-28T13:24:38;9.55;;;4.20;;
7729;SDS011;3908;52.310;7.230;2023-05-28T13:43:05;10.57;;;4.43;;
7729;SDS011;3908;52.310;7.230;2023-05-28T13:45:53;13.40;;;4.03;;
7729;SDS011;3908;52.310;7.230;2023-05-28T13:48:39;12.00;;;4.05;;
7729;SDS011;3908;52.310;7.230;2023-05-28T13:51:26;8.02;;;3.30;;
7729;SDS011;3908;52.310;7.230;2023-05-28T13:54:13;7.38;;;3.88;;
7729;SDS011;3908;52.310;7.230;2023-05-28T13:57:00;7.88;;;3.88;;
7729;SDS011;3908;52.310;7.230;2023-05-28T13:59:48;10.23;;;3.75;;
7729;SDS011;3908;52.310;7.230;2023-05-28T14:02:35;11.40;;;4.55;;
7729;SDS011;3908;52.310;7.230;2023-05-28T14:05:22;13.57;;;4.68;;
7729;SDS011;3908;52.310;7.230;2023-05-28T14:08:09;10.95;;;4.20;;
7729;SDS011;3908;52.310;7.230;2023-05-28T14:10:55;8.50;;;4.38;;
7729;SDS011;3908;52.310;7.230;2023-05-28T14:13:42;10.73;;;4.20;;
7729;SDS011;3908;52.310;7.230;2023-05-28T14:16:30;6.22;;;3.67;;
7729;SDS011;3908;52.310;7.230;2023-05-28T14:19:17;12.55;;;4.78;;
7729;SDS011;3908;52.310;7.230;2023-05-28T14:22:04;10.68;;;3.80;;
7729;SDS011;3908;52.310;7.230;2023-05-28T14:24:51;10.82;;;4.00;;
7729;SDS011;3908;52.310;7.230;2023-05-28T14:27:38;10.05;;;4.22;;
7729;SDS011;3908;52.310;7.230;2023-05-28T14:30:24;10.95;;;4.55;;
7729;SDS011;3908;52.310;7.230;2023-05-28T14:33:13;11.60;;;4.30;;
7729;SDS011;3908;52.310;7.230;2023-05-28T14:35:59;9.70;;;4.65;;
7729;SDS011;3908;52.310;7.230;2023-05-28T14:38:46;9.13;;;4.20;;
7729;SDS011;3908;52.310;7.230;2023-05-28T14:41:33;8.60;;;4.07;;
7729;SDS011;3908;52.310;7.230;2023-05-28T14:44:20;8.48;;;4.03;;
7729;SDS011;3908;52.310;7.230;2023-05-28T14:47:06;8.35;;;3.83;;
7729;SDS011;3908;52.310;7.230;2023-05-28T14:49:54;8.18;;;4.07;;
7729;SDS011;3908;52.310;7.230;2023-05-28T14:52:41;11.75;;;4.40;;
7729;SDS011;3908;52.310;7.230;2023-05-28T14:55:28;9.13;;;4.20;;
7729;SDS011;3908;52.310;7.230;2023-05-28T14:58:15;9.40;;;5.07;;
7729;SDS011;3908;52.310;7.230;2023-05-28T15:01:02;12.93;;;4.18;;
7729;SDS011;3908;52.310;7.230;2023-05-28T15:03:48;12.32;;;4.22;;
7729;SDS011;3908;52.310;7.230;2023-05-28T15:06:36;9.70;;;4.60;;
7729;SDS011;3908;52.310;7.230;2023-05-28T15:09:23;7.93;;;4.80;;
7729;SDS011;3908;52.310;7.230;2023-05-28T15:12:10;9.10;;;3.85;;
7729;SDS011;3908;52.310;7.230;2023-05-28T15:14:57;11.70;;;4.70;;
7729;SDS011;3908;52.310;7.230;2023-05-28T15:17:44;9.65;;;4.28;;
7729;SDS011;3908;52.310;7.230;2023-05-28T15:20:31;11.50;;;4.63;;
7729;SDS011;3908;52.310;7.230;2023-05-28T15:23:19;10.73;;;4.30;;
7729;SDS011;3908;52.310;7.230;2023-05-28T15:26:06;7.90;;;4.53;;
7729;SDS011;3908;52.310;7.230;2023-05-28T15:28:53;10.35;;;4.43;;
7729;SDS011;3908;52.310;7.230;2023-05-28T15:31:40;7.30;;;3.97;;
7729;SDS011;3908;52.310;7.230;2023-05-28T15:34:27;12.77;;;4.85;;
7729;SDS011;3908;52.310;7.230;2023-05-28T15:37:14;13.60;;;4.72;;
7729;SDS011;3908;52.310;7.230;2023-05-28T15:40:03;8.63;;;4.50;;
7729;SDS011;3908;52.310;7.230;2023-05-28T15:42:50;6.72;;;4.30;;
7729;SDS011;3908;52.310;7.230;2023-05-28T15:45:39;11.50;;;4.55;;
7729;SDS011;3908;52.310;7.230;2023-05-28T15:48:26;9.43;;;4.85;;
7729;SDS011;3908;52.310;7.230;2023-05-28T15:51:12;10.00;;;5.07;;
7729;SDS011;3908;52.310;7.230;2023-05-28T15:53:59;10.75;;;4.43;;
7729;SDS011;3908;52.310;7.230;2023-05-28T15:56:48;11.40;;;4.38;;
7729;SDS011;3908;52.310;7.230;2023-05-28T15:59:35;8.60;;;4.25;;
7729;SDS011;3908;52.310;7.230;2023-05-28T16:02:27;7.32;;;4.18;;
7729;SDS011;3908;52.310;7.230;2023-05-28T16:05:16;11.80;;;4.55;;
7729;SDS011;3908;52.310;7.230;2023-05-28T16:08:02;11.77;;;4.35;;
7729;SDS011;3908;52.310;7.230;2023-05-28T16:10:51;9.23;;;4.47;;
7729;SDS011;3908;52.310;7.230;2023-05-28T16:13:39;11.55;;;4.78;;
7729;SDS011;3908;52.310;7.230;2023-05-28T16:16:26;8.70;;;4.70;;
7729;SDS011;3908;52.310;7.230;2023-05-28T16:19:13;9.60;;;4.10;;
7729;SDS011;3908;52.310;7.230;2023-05-28T16:22:00;11.82;;;4.45;;
7729;SDS011;3908;52.310;7.230;2023-05-28T16:24:47;6.28;;;3.88;;
7729;SDS011;3908;52.310;7.230;2023-05-28T16:27:34;8.77;;;4.30;;
7729;SDS011;3908;52.310;7.230;2023-05-28T16:30:24;10.63;;;5.50;;
7729;SDS011;3908;52.310;7.230;2023-05-28T16:33:11;11.32;;;4.13;;
7729;SDS011;3908;52.310;7.230;2023-05-28T16:35:58;4.88;;;3.50;;
7729;SDS011;3908;52.310;7.230;2023-05-28T16:38:45;9.70;;;4.15;;
7729;SDS011;3908;52.310;7.230;2023-05-28T16:41:32;6.82;;;3.60;;
7729;SDS011;3908;52.310;7.230;2023-05-28T16:44:19;6.57;;;3.65;;
7729;SDS011;3908;52.310;7.230;2023-05-28T16:47:08;9.40;;;3.58;;
7729;SDS011;3908;52.310;7.230;2023-05-28T16:49:55;6.07;;;3.42;;
7729;SDS011;3908;52.310;7.230;2023-05-28T16:52:42;8.07;;;3.63;;
7729;SDS011;3908;52.310;7.230;2023-05-28T16:55:28;4.90;;;3.17;;
7729;SDS011;3908;52.310;7.230;2023-05-28T16:58:15;4.68;;;3.10;;
7729;SDS011;3908;52.310;7.230;2023-05-28T17:01:02;6.75;;;3.38;;
7729;SDS011;3908;52.310;7.230;2023-05-28T17:03:51;6.38;;;3.30;;
7729;SDS011;3908;52.310;7.230;2023-05-28T17:06:38;5.63;;;3.42;;
7729;SDS011;3908;52.310;7.230;2023-05-28T17:09:24;5.05;;;3.13;;
7729;SDS011;3908;52.310;7.230;2023-05-28T17:12:11;5.05;;;3.38;;
7729;SDS011;3908;52.310;7.230;2023-05-28T17:14:59;5.32;;;3.17;;
7729;SDS011;3908;52.310;7.230;2023-05-28T17:17:46;5.65;;;2.85;;
7729;SDS011;3908;52.310;7.230;2023-05-28T17:20:34;6.28;;;3.33;;
7729;SDS011;3908;52.310;7.230;2023-05-28T17:23:22;10.88;;;3.00;;
7729;SDS011;3908;52.310;7.230;2023-05-28T17:26:09;4.68;;;2.55;;
7729;SDS011;3908;52.310;7.230;2023-05-28T17:28:56;4.80;;;2.70;;
7729;SDS011;3908;52.310;7.230;2023-05-28T17:31:43;6.00;;;2.70;;
7729;SDS011;3908;52.310;7.230;2023-05-28T17:34:29;6.18;;;2.67;;
7729;SDS011;3908;52.310;7.230;2023-05-28T17:37:18;5.95;;;2.83;;
7729;SDS011;3908;52.310;7.230;2023-05-28T17:40:05;5.00;;;2.65;;
7729;SDS011;3908;52.310;7.230;2023-05-28T17:42:53;6.68;;;2.40;;
7729;SDS011;3908;52.310;7.230;2023-05-28T17:45:39;5.45;;;2.63;;
7729;SDS011;3908;52.310;7.230;2023-05-28T17:48:26;7.13;;;2.92;;
7729;SDS011;3908;52.310;7.230;2023-05-28T17:51:13;4.82;;;2.50;;
7729;SDS011;3908;52.310;7.230;2023-05-28T17:54:01;5.82;;;2.70;;
7729;SDS011;3908;52.310;7.230;2023-05-28T17:56:48;10.00;;;2.92;;
7729;SDS011;3908;52.310;7.230;2023-05-28T17:59:35;6.47;;;2.58;;
7729;SDS011;3908;52.310;7.230;2023-05-28T18:02:22;6.22;;;2.17;;
7729;SDS011;3908;52.310;7.230;2023-05-28T18:05:09;6.57;;;2.35;;
7729;SDS011;3908;52.310;7.230;2023-05-28T18:07:56;8.82;;;2.60;;